Terminal Aerodrome Forecast
Issued by NWS Cleveland, OH

Home | Current Version | Previous Version | Text Only | Print | Product List | Glossary Off
Versions: 1 2 3 4 5 6 7 8 9 10 11 12 13 14 15 16 17 18 19 20 21 22 23 24 25

000
FTUS41 KCLE 210558 CCA
TAFMFD
TAF COR
KMFD 210558Z 2106/2206 33004KT 1/2SM FG BKN008
      TEMPO 2106/2110 33004KT 1SM -SHRA BKN012
     FM211100 32005KT 2SM BR OVC008
     FM211300 33006KT 4SM BR OVC012
     FM211500 33008KT P6SM OVC015
     FM211800 31010KT P6SM SCT035
     FM220400 33010KT P6SM BKN035=

USA.gov is the U.S. government's official web portal to all federal, state and local government web resources and services.